Haleeka, Pennsylvania
Current Conditions -  °F | °C
As of 1:28 PM on Monday 26 Jan 2015 (Local Time) from KIPT Reporting Station
Light Snow Light Snow  
Wind Chill: 23°   Ceiling: 1700
Heat Index: 23°   Visibility: 0.75mi
Dew Point: 19°   Wind: 3mph
Humidity: 85%   Direction: 130°SE
Pressure: 29.83"   Gusts: NA
Location:  41.3181°N, 77.075°W
Report Text: KIPT 261828Z 13003KT 3/4SM -SN BR BKN017 OVC029 M05/M07 A2983 RMK AO2 P0001 T10501072
Loading
Personal Weather Stations






























Interactive Weather Map New forecast layout! Learn more

10-Day Weather Forecast

Advertisements
Track Severe Weather on mobile